createdAt,value
2022-09-01T00:01:55.131Z,1.40
2022-09-01T00:04:27.247Z,1.30
2022-09-01T00:06:56.414Z,1.30
2022-09-01T00:09:25.248Z,1.73
2022-09-01T00:11:55.847Z,1.10
2022-09-01T00:14:30.125Z,1.20
2022-09-01T00:16:59.690Z,1.20
2022-09-01T00:19:29.723Z,1.47
2022-09-01T00:21:57.930Z,1.37
2022-09-01T00:24:26.593Z,1.10
2022-09-01T00:26:55.053Z,1.50
2022-09-01T00:29:23.613Z,1.20
2022-09-01T00:31:51.361Z,1.77
2022-09-01T00:34:19.132Z,1.30
2022-09-01T00:36:48.395Z,1.23
2022-09-01T00:39:16.137Z,1.23
2022-09-01T00:41:44.793Z,1.20
2022-09-01T00:44:14.459Z,1.50
2022-09-01T00:46:47.651Z,1.40
2022-09-01T00:49:21.122Z,1.50
2022-09-01T00:51:52.901Z,1.40
2022-09-01T00:54:23.467Z,1.33
2022-09-01T00:56:57.327Z,1.70
2022-09-01T00:59:27.544Z,1.50
2022-09-01T01:01:55.299Z,1.60
2022-09-01T01:04:24.468Z,1.80
2022-09-01T01:06:58.836Z,1.60
2022-09-01T01:09:28.238Z,1.20
2022-09-01T01:11:59.456Z,1.40
2022-09-01T01:14:29.031Z,1.40
2022-09-01T01:16:56.789Z,1.53
2022-09-01T01:19:44.272Z,1.50
2022-09-01T01:22:34.463Z,1.70
2022-09-01T01:25:03.644Z,1.60
2022-09-01T01:27:33.610Z,1.73
2022-09-01T01:30:11.114Z,1.60
2022-09-01T01:32:43.103Z,1.50
2022-09-01T01:35:14.892Z,1.30
2022-09-01T01:37:45.429Z,1.50
2022-09-01T01:40:16.988Z,1.80
2022-09-01T01:42:46.039Z,1.30
2022-09-01T01:45:17.149Z,1.40
2022-09-01T01:47:51.645Z,1.50
2022-09-01T01:50:20.074Z,1.60
2022-09-01T01:52:47.750Z,1.47
2022-09-01T01:55:20.246Z,1.03
2022-09-01T01:57:50.093Z,1.57
2022-09-01T02:00:28.735Z,1.17
2022-09-01T02:02:59.594Z,1.30
2022-09-01T02:05:29.534Z,1.90
2022-09-01T02:08:00.113Z,1.40
2022-09-01T02:10:33.555Z,1.30
2022-09-01T02:13:04.747Z,1.20
2022-09-01T02:15:38.175Z,1.50
2022-09-01T02:18:06.364Z,1.57
2022-09-01T02:20:34.220Z,1.40
2022-09-01T02:23:10.534Z,1.53
2022-09-01T02:26:14.112Z,1.67
2022-09-01T02:28:42.487Z,1.63
2022-09-01T02:31:11.660Z,1.27
2022-09-01T02:33:45.518Z,1.80
2022-09-01T02:36:16.041Z,1.40
2022-09-01T02:38:46.678Z,2.30
2022-09-01T02:41:19.995Z,1.90
2022-09-01T02:43:47.892Z,2.10
2022-09-01T02:46:16.462Z,1.87
2022-09-01T02:48:46.033Z,1.80
2022-09-01T02:51:16.353Z,1.80
2022-09-01T02:53:49.733Z,1.90
2022-09-01T02:56:20.189Z,1.80
2022-09-01T02:58:52.983Z,2.67
2022-09-01T03:01:24.794Z,2.17
2022-09-01T03:03:55.625Z,2.53
2022-09-01T03:06:24.544Z,2.30
2022-09-01T03:08:53.628Z,2.40
2022-09-01T03:11:24.305Z,2.20
2022-09-01T03:13:52.355Z,1.83
2022-09-01T03:16:20.106Z,1.63
2022-09-01T03:18:47.948Z,2.33
2022-09-01T03:21:17.207Z,2.40
2022-09-01T03:23:46.683Z,1.83
2022-09-01T03:26:18.609Z,1.87
2022-09-01T03:28:48.709Z,1.73
2022-09-01T03:31:18.296Z,1.90
2022-09-01T03:33:46.856Z,2.17
2022-09-01T03:36:22.973Z,2.40
2022-09-01T03:38:52.744Z,2.10
2022-09-01T03:41:25.385Z,2.17
2022-09-01T03:43:56.721Z,2.50
2022-09-01T03:46:25.376Z,2.20
2022-09-01T03:48:58.500Z,2.03
2022-09-01T03:51:27.125Z,2.40
2022-09-01T03:53:56.844Z,2.33
2022-09-01T03:56:27.425Z,2.00
2022-09-01T03:58:59.199Z,2.37
2022-09-01T04:01:27.820Z,2.00
2022-09-01T04:03:56.010Z,1.97
2022-09-01T04:06:32.043Z,1.80
2022-09-01T04:09:03.084Z,2.80
2022-09-01T04:11:36.194Z,1.63
2022-09-01T04:14:05.215Z,2.00
2022-09-01T04:16:53.685Z,2.10
2022-09-01T04:19:26.372Z,2.60
2022-09-01T04:21:57.363Z,1.80
2022-09-01T04:24:29.645Z,2.23
2022-09-01T04:27:01.967Z,1.93
2022-09-01T04:29:33.103Z,1.90
2022-09-01T04:32:05.499Z,2.00
2022-09-01T04:34:38.367Z,2.50
2022-09-01T04:37:10.111Z,1.83
2022-09-01T04:39:39.138Z,2.30
2022-09-01T04:42:09.307Z,2.53
2022-09-01T04:44:39.896Z,2.43
2022-09-01T04:47:11.571Z,2.67
2022-09-01T04:49:39.312Z,2.33
2022-09-01T04:52:07.028Z,2.70
2022-09-01T04:54:37.020Z,3.00
2022-09-01T04:57:06.818Z,3.03
2022-09-01T04:59:39.043Z,2.93
2022-09-01T05:02:09.521Z,3.40
2022-09-01T05:04:37.995Z,3.20
2022-09-01T05:07:06.302Z,3.43
2022-09-01T05:09:38.422Z,2.63
2022-09-01T05:12:16.871Z,3.10
2022-09-01T05:14:48.915Z,2.67
2022-09-01T05:17:21.583Z,2.93
2022-09-01T05:19:51.403Z,3.10
2022-09-01T05:22:22.428Z,3.10
2022-09-01T05:25:02.966Z,2.90
2022-09-01T05:27:31.115Z,2.50
2022-09-01T05:30:00.730Z,2.33
2022-09-01T05:32:28.732Z,2.60
2022-09-01T05:34:57.170Z,2.00
2022-09-01T05:37:28.823Z,2.57
2022-09-01T05:39:57.799Z,2.83
2022-09-01T05:42:28.021Z,2.43
2022-09-01T05:44:55.853Z,2.57
2022-09-01T05:47:26.315Z,2.07
2022-09-01T05:49:58.431Z,2.63
2022-09-01T05:52:26.786Z,2.40
2022-09-01T05:55:00.111Z,2.50
2022-09-01T05:57:34.656Z,2.47
2022-09-01T06:00:11.026Z,2.00
2022-09-01T06:02:42.755Z,2.53
2022-09-01T06:05:15.249Z,3.30
2022-09-01T06:07:44.267Z,1.80
2022-09-01T06:10:14.499Z,1.93
2022-09-01T06:12:43.125Z,2.47
2022-09-01T06:15:16.228Z,2.30
2022-09-01T06:17:50.140Z,2.03
2022-09-01T06:20:19.084Z,2.33
2022-09-01T06:22:47.737Z,2.40
2022-09-01T06:25:18.505Z,2.17
2022-09-01T06:27:48.269Z,2.87
2022-09-01T06:30:23.729Z,2.20
2022-09-01T06:32:58.066Z,1.53
2022-09-01T06:35:29.501Z,2.60
2022-09-01T06:37:58.655Z,1.80
2022-09-01T06:40:42.365Z,1.83
2022-09-01T06:43:16.187Z,1.77
2022-09-01T06:45:49.868Z,1.20
2022-09-01T06:48:20.095Z,1.40
2022-09-01T06:53:38.970Z,1.20
2022-09-01T06:56:10.161Z,1.40
2022-09-01T06:58:39.343Z,1.87
2022-09-01T07:01:14.616Z,1.30
2022-09-01T07:03:43.907Z,1.60
2022-09-01T07:09:47.902Z,1.20
2022-09-01T07:13:06.532Z,1.37
2022-09-01T07:18:26.019Z,1.30
2022-09-01T07:21:07.653Z,1.00
2022-09-01T07:24:05.837Z,1.07
2022-09-01T07:26:35.450Z,1.27
2022-09-01T07:29:06.268Z,1.00
2022-09-01T07:34:46.602Z,0.63
2022-09-01T07:38:46.862Z,0.90
2022-09-01T07:51:36.530Z,0.93
2022-09-01T07:54:07.026Z,0.80
2022-09-01T07:56:39.737Z,0.83
2022-09-01T07:59:12.707Z,0.67
2022-09-01T08:01:51.087Z,0.83
2022-09-01T08:04:23.064Z,0.77
2022-09-01T08:06:51.627Z,0.93
2022-09-01T08:09:37.378Z,0.60
2022-09-01T08:12:07.377Z,0.80
2022-09-01T08:14:39.477Z,0.63
2022-09-01T08:19:58.461Z,0.70
2022-09-01T08:23:01.759Z,0.80
2022-09-01T08:25:38.583Z,0.97
2022-09-01T08:28:07.717Z,1.03
2022-09-01T08:30:36.297Z,0.70
2022-09-01T08:33:12.455Z,0.80
2022-09-01T08:35:47.355Z,0.70
2022-09-01T08:38:15.527Z,0.93
2022-09-01T08:40:56.229Z,0.60
2022-09-01T08:43:32.259Z,0.73
2022-09-01T08:46:06.341Z,1.00
2022-09-01T08:51:34.167Z,0.80
2022-09-01T08:54:07.694Z,0.67
2022-09-01T08:56:38.501Z,0.90
2022-09-01T08:59:10.636Z,0.60
2022-09-01T09:02:19.650Z,0.77
2022-09-01T09:04:54.446Z,0.80
2022-09-01T09:07:32.668Z,0.50
2022-09-01T09:10:07.602Z,0.90
2022-09-01T09:12:52.687Z,0.90
2022-09-01T09:15:27.961Z,0.60
2022-09-01T09:18:01.166Z,0.67
2022-09-01T09:20:29.477Z,0.80
2022-09-01T09:22:59.629Z,0.80
2022-09-01T09:25:29.805Z,0.80
2022-09-01T09:28:01.178Z,0.80
2022-09-01T09:30:31.445Z,0.70
2022-09-01T09:35:51.962Z,0.87
2022-09-01T09:38:28.618Z,0.50
2022-09-01T09:41:20.333Z,0.70
2022-09-01T09:43:58.400Z,0.97
2022-09-01T09:46:29.178Z,0.70
2022-09-01T09:49:13.519Z,0.80
2022-09-01T09:51:43.355Z,0.73
2022-09-01T09:54:20.931Z,0.70
2022-09-01T09:56:50.148Z,0.97
2022-09-01T09:59:45.814Z,0.50
2022-09-01T10:02:25.012Z,0.70
2022-09-01T10:04:57.263Z,0.67
2022-09-01T10:07:33.954Z,0.80
2022-09-01T10:10:03.449Z,0.73
2022-09-01T10:12:32.481Z,0.60
2022-09-01T10:15:07.145Z,0.40
2022-09-01T10:17:43.612Z,0.70
2022-09-01T10:20:14.633Z,1.00
2022-09-01T10:22:42.438Z,0.80
2022-09-01T10:25:21.698Z,0.90
2022-09-01T10:27:55.188Z,0.70
2022-09-01T10:30:24.654Z,0.80
2022-09-01T10:32:56.016Z,0.80
2022-09-01T10:35:26.908Z,0.80
2022-09-01T10:37:58.069Z,0.90
2022-09-01T10:40:43.812Z,0.70
2022-09-01T10:43:28.409Z,0.60
2022-09-01T10:46:05.419Z,1.00
2022-09-01T10:48:47.980Z,0.90
2022-09-01T10:51:51.398Z,1.00
2022-09-01T10:54:52.592Z,1.20
2022-09-01T10:57:36.168Z,1.00
2022-09-01T11:04:01.450Z,1.00
2022-09-01T11:07:11.534Z,0.70
2022-09-01T11:09:36.096Z,0.80
2022-09-01T11:12:16.435Z,0.70
2022-09-01T11:14:51.194Z,0.70
2022-09-01T11:17:21.676Z,0.90
2022-09-01T11:19:59.002Z,1.70
2022-09-01T11:22:33.114Z,1.07
2022-09-01T11:25:39.044Z,0.90
2022-09-01T11:28:45.937Z,0.80
2022-09-01T11:31:27.373Z,0.90
2022-09-01T11:34:10.913Z,0.70
2022-09-01T11:36:54.156Z,0.77
2022-09-01T11:39:34.960Z,1.10
2022-09-01T11:42:05.650Z,0.83
2022-09-01T11:44:39.772Z,0.77
2022-09-01T11:47:16.536Z,0.53
2022-09-01T11:49:50.708Z,0.70
2022-09-01T11:52:22.374Z,0.90
2022-09-01T11:54:50.469Z,0.90
2022-09-01T11:57:24.975Z,0.80
2022-09-01T11:59:53.065Z,1.00
2022-09-01T12:02:23.140Z,0.80
2022-09-01T12:04:51.762Z,0.90
2022-09-01T12:07:29.972Z,1.03
2022-09-01T12:09:57.675Z,1.07
2022-09-01T12:12:32.915Z,0.90
2022-09-01T12:15:06.209Z,1.17
2022-09-01T12:17:34.951Z,1.23
2022-09-01T12:20:29.205Z,0.43
2022-09-01T12:22:59.801Z,0.70
2022-09-01T12:25:29.325Z,0.97
2022-09-01T12:27:57.641Z,0.80
2022-09-01T12:30:27.099Z,0.87
2022-09-01T12:33:22.832Z,1.00
2022-09-01T12:35:42.852Z,0.80
2022-09-01T12:38:25.439Z,1.10
2022-09-01T12:40:55.139Z,0.70
2022-09-01T12:43:35.923Z,0.80
2022-09-01T12:46:06.460Z,0.90
2022-09-01T12:48:36.602Z,0.90
2022-09-01T12:51:20.643Z,1.10
2022-09-01T12:53:54.804Z,0.80
2022-09-01T12:56:31.087Z,1.60
2022-09-01T12:59:14.207Z,1.10
2022-09-01T13:01:43.921Z,0.80
2022-09-01T13:04:24.459Z,1.30
2022-09-01T13:06:52.871Z,0.80
2022-09-01T13:09:22.328Z,1.40
2022-09-01T13:12:06.985Z,0.97
2022-09-01T13:14:35.166Z,1.07
2022-09-01T13:17:02.856Z,1.63
2022-09-01T13:19:30.843Z,0.80
2022-09-01T13:21:58.660Z,1.40
2022-09-01T13:24:30.458Z,1.20
2022-09-01T13:29:48.902Z,0.83
2022-09-01T13:32:20.544Z,1.00
2022-09-01T13:34:50.683Z,1.23
2022-09-01T13:37:19.309Z,1.13
2022-09-01T13:39:48.412Z,1.00
2022-09-01T13:42:16.415Z,0.73
2022-09-01T13:44:44.448Z,0.70
2022-09-01T13:50:10.005Z,0.70
2022-09-01T13:52:39.378Z,0.73
2022-09-01T13:55:10.458Z,1.17
2022-09-01T13:57:38.353Z,1.00
2022-09-01T14:00:07.984Z,0.77
2022-09-01T14:02:38.445Z,0.90
2022-09-01T14:05:07.020Z,0.80
2022-09-01T14:07:34.591Z,0.77
2022-09-01T14:10:02.674Z,0.70
2022-09-01T14:12:32.004Z,0.70
2022-09-01T14:15:17.529Z,0.87
2022-09-01T14:17:47.786Z,0.70
2022-09-01T14:20:18.406Z,1.00
2022-09-01T14:22:46.570Z,1.03
2022-09-01T14:25:14.842Z,0.80
2022-09-01T14:27:44.717Z,0.77
2022-09-01T14:30:14.932Z,1.20
2022-09-01T14:32:42.725Z,0.73
2022-09-01T14:35:10.723Z,0.80
2022-09-01T14:37:38.926Z,0.70
2022-09-01T14:40:09.699Z,1.10
2022-09-01T14:42:46.490Z,1.03
2022-09-01T14:45:15.980Z,1.00
2022-09-01T14:47:44.176Z,0.70
2022-09-01T14:50:14.190Z,1.00
2022-09-01T14:52:43.604Z,1.07
2022-09-01T14:55:17.060Z,0.90
2022-09-01T14:57:46.114Z,0.70
2022-09-01T15:00:14.377Z,0.90
2022-09-01T15:02:43.376Z,0.90
2022-09-01T15:05:12.359Z,0.90
2022-09-01T15:07:40.496Z,1.00
2022-09-01T15:10:10.497Z,0.70
2022-09-01T15:12:43.477Z,1.03
2022-09-01T15:15:12.785Z,1.10
2022-09-01T15:17:42.272Z,0.80
2022-09-01T15:20:30.238Z,1.03
2022-09-01T15:22:57.760Z,0.73
2022-09-01T15:25:25.700Z,0.80
2022-09-01T15:27:53.595Z,0.70
2022-09-01T15:30:22.826Z,0.70
2022-09-01T15:32:52.740Z,1.43
2022-09-01T15:35:21.289Z,0.90
2022-09-01T15:37:49.868Z,0.90
2022-09-01T15:40:18.622Z,0.90
2022-09-01T15:42:46.424Z,0.70
2022-09-01T15:45:17.031Z,1.00
2022-09-01T15:47:48.211Z,1.10
2022-09-01T15:50:20.959Z,0.90
2022-09-01T15:52:52.710Z,1.17
2022-09-01T15:55:22.368Z,0.80
2022-09-01T15:57:50.580Z,1.20
2022-09-01T16:00:19.053Z,0.80
2022-09-01T16:02:48.110Z,0.93
2022-09-01T16:05:17.742Z,0.83
2022-09-01T16:07:45.926Z,1.10
2022-09-01T16:10:13.745Z,0.83
2022-09-01T16:12:43.829Z,0.90
2022-09-01T16:15:14.195Z,0.87
2022-09-01T16:18:06.821Z,0.80
2022-09-01T16:20:37.899Z,1.00
2022-09-01T16:23:14.104Z,0.93
2022-09-01T16:25:42.129Z,1.07
2022-09-01T16:28:17.769Z,1.67
2022-09-01T16:30:46.301Z,1.40
2022-09-01T16:33:19.955Z,1.57
2022-09-01T16:36:01.823Z,1.23
2022-09-01T16:38:36.157Z,1.20
2022-09-01T16:41:10.640Z,1.20
2022-09-01T16:43:43.009Z,1.20
2022-09-01T16:46:13.324Z,0.97
2022-09-01T16:48:47.809Z,0.73
2022-09-01T16:51:22.294Z,1.10
2022-09-01T16:54:03.114Z,1.07
2022-09-01T16:56:33.296Z,1.03
2022-09-01T16:59:14.309Z,0.77
2022-09-01T17:01:47.261Z,0.73
2022-09-01T17:04:23.604Z,0.80
2022-09-01T17:06:58.037Z,0.80
2022-09-01T17:09:32.494Z,1.30
2022-09-01T17:12:15.685Z,0.77
2022-09-01T17:14:47.448Z,0.90
2022-09-01T17:17:20.891Z,0.70
2022-09-01T17:19:52.666Z,0.80
2022-09-01T17:22:21.942Z,1.10
2022-09-01T17:24:52.245Z,1.00
2022-09-01T17:27:22.877Z,0.90
2022-09-01T17:29:52.662Z,0.80
2022-09-01T17:32:36.144Z,0.80
2022-09-01T17:35:13.154Z,1.10
2022-09-01T17:37:48.813Z,1.13
2022-09-01T17:40:21.064Z,0.80
2022-09-01T17:42:55.210Z,0.80
2022-09-01T17:45:28.983Z,1.10
2022-09-01T17:48:04.060Z,0.90
2022-09-01T17:50:51.390Z,0.70
2022-09-01T17:53:28.531Z,0.80
2022-09-01T17:56:01.590Z,1.00
2022-09-01T17:58:40.587Z,0.70
2022-09-01T18:01:11.692Z,0.90
2022-09-01T18:03:54.028Z,1.00
2022-09-01T18:06:28.812Z,0.97
2022-09-01T18:08:58.117Z,0.90
2022-09-01T18:11:33.026Z,0.90
2022-09-01T18:14:06.052Z,0.90
2022-09-01T18:16:38.008Z,0.80
2022-09-01T18:19:09.014Z,0.80
2022-09-01T18:21:41.283Z,0.80
2022-09-01T18:24:15.862Z,0.90
2022-09-01T18:26:46.063Z,0.97
2022-09-01T18:29:13.721Z,1.10
2022-09-01T18:32:09.269Z,0.90
2022-09-01T18:34:55.944Z,0.90
2022-09-01T18:37:29.903Z,0.80
2022-09-01T18:40:04.794Z,1.03
2022-09-01T18:42:36.268Z,1.13
2022-09-01T18:45:10.034Z,1.10
2022-09-01T18:47:41.523Z,0.90
2022-09-01T18:50:15.123Z,1.10
2022-09-01T18:52:52.423Z,1.30
2022-09-01T18:55:24.298Z,1.37
2022-09-01T18:57:53.631Z,1.50
2022-09-01T19:00:22.671Z,1.00
2022-09-01T19:03:05.475Z,1.13
2022-09-01T19:05:45.052Z,1.23
2022-09-01T19:08:20.137Z,1.10
2022-09-01T19:10:52.517Z,0.90
2022-09-01T19:13:31.482Z,1.17
2022-09-01T19:16:08.524Z,1.20
2022-09-01T19:18:39.693Z,1.17
2022-09-01T19:21:09.643Z,1.37
2022-09-01T19:23:42.990Z,1.60
2022-09-01T19:26:16.182Z,1.30
2022-09-01T19:28:47.077Z,0.93
2022-09-01T19:31:20.995Z,1.37
2022-09-01T19:33:51.932Z,1.30
2022-09-01T19:36:25.005Z,1.00
2022-09-01T19:38:54.805Z,1.17
2022-09-01T19:41:26.340Z,1.40
2022-09-01T19:43:59.438Z,1.00
2022-09-01T19:46:31.996Z,1.40
2022-09-01T19:49:05.025Z,1.30
2022-09-01T19:51:40.183Z,1.17
2022-09-01T19:54:12.869Z,0.97
2022-09-01T19:56:49.602Z,1.20
2022-09-01T19:59:20.878Z,1.17
2022-09-01T20:01:59.265Z,1.30
2022-09-01T20:04:34.710Z,0.80
2022-09-01T20:07:02.974Z,1.03
2022-09-01T20:09:38.454Z,0.90
2022-09-01T20:12:14.608Z,1.30
2022-09-01T20:15:06.031Z,0.93
2022-09-01T20:17:41.294Z,1.00
2022-09-01T20:20:11.889Z,1.27
2022-09-01T20:22:45.017Z,1.00
2022-09-01T20:25:16.229Z,1.20
2022-09-01T20:27:51.286Z,1.27
2022-09-01T20:30:20.836Z,0.80
2022-09-01T20:32:56.938Z,1.80
2022-09-01T20:35:27.910Z,1.40
2022-09-01T20:37:58.539Z,1.43
2022-09-01T20:40:30.722Z,1.50
2022-09-01T20:43:18.495Z,1.00
2022-09-01T20:45:46.653Z,1.10
2022-09-01T20:48:16.878Z,0.93
2022-09-01T20:50:52.039Z,1.23
2022-09-01T20:53:29.484Z,1.50
2022-09-01T20:56:00.609Z,1.30
2022-09-01T20:58:33.080Z,1.33
2022-09-01T21:01:07.757Z,1.43
2022-09-01T21:03:39.796Z,1.30
2022-09-01T21:06:17.976Z,1.10
2022-09-01T21:08:48.920Z,1.27
2022-09-01T21:11:31.934Z,1.20
2022-09-01T21:14:13.950Z,1.17
2022-09-01T21:16:49.153Z,1.27
2022-09-01T21:19:21.738Z,1.30
2022-09-01T21:21:57.653Z,1.17
2022-09-01T21:24:25.188Z,1.60
2022-09-01T21:26:56.446Z,1.20
2022-09-01T21:29:33.033Z,1.20
2022-09-01T21:32:00.928Z,1.00
2022-09-01T21:34:28.453Z,1.10
2022-09-01T21:36:55.985Z,1.20
2022-09-01T21:39:23.693Z,1.30
2022-09-01T21:41:51.319Z,1.50
2022-09-01T21:44:21.301Z,1.20
2022-09-01T21:46:48.890Z,1.00
2022-09-01T21:49:17.373Z,1.30
2022-09-01T21:51:45.022Z,1.10
2022-09-01T21:54:12.914Z,1.40
2022-09-01T21:56:40.597Z,1.20
2022-09-01T21:59:11.328Z,1.30
2022-09-01T22:01:40.378Z,1.27
2022-09-01T22:04:08.116Z,1.10
2022-09-01T22:06:35.637Z,1.27
2022-09-01T22:09:20.377Z,1.00
2022-09-01T22:11:49.698Z,1.37
2022-09-01T22:14:17.671Z,1.27
2022-09-01T22:16:47.048Z,1.27
2022-09-01T22:19:15.429Z,1.30
2022-09-01T22:21:43.341Z,1.30
2022-09-01T22:24:11.020Z,1.37
2022-09-01T22:26:38.827Z,1.33
2022-09-01T22:29:07.916Z,1.80
2022-09-01T22:31:37.199Z,1.20
2022-09-01T22:34:06.891Z,1.33
2022-09-01T22:36:37.756Z,1.30
2022-09-01T22:39:06.716Z,1.00
2022-09-01T22:41:39.121Z,1.40
2022-09-01T22:44:07.748Z,1.10
2022-09-01T22:46:36.491Z,1.00
2022-09-01T22:49:06.847Z,1.13
2022-09-01T22:51:35.786Z,1.47
2022-09-01T22:54:03.538Z,1.00
2022-09-01T22:56:33.082Z,0.97
2022-09-01T22:59:02.626Z,1.60
2022-09-01T23:01:33.114Z,1.23
2022-09-01T23:04:02.054Z,2.10
2022-09-01T23:06:32.299Z,1.50
2022-09-01T23:09:01.894Z,1.30
2022-09-01T23:11:30.233Z,1.13
2022-09-01T23:13:58.225Z,0.87
2022-09-01T23:16:26.628Z,1.40
2022-09-01T23:18:55.137Z,1.17
2022-09-01T23:21:26.261Z,1.07
2022-09-01T23:23:58.496Z,0.97
2022-09-01T23:26:27.623Z,1.03
2022-09-01T23:28:55.399Z,0.83
2022-09-01T23:31:25.476Z,1.10
2022-09-01T23:33:53.692Z,0.77
2022-09-01T23:36:24.177Z,1.00
2022-09-01T23:38:52.588Z,0.90
2022-09-01T23:41:23.500Z,0.80
2022-09-01T23:43:51.250Z,2.37
2022-09-01T23:46:20.085Z,1.10
2022-09-01T23:48:48.384Z,1.13
2022-09-01T23:51:17.957Z,0.90
2022-09-01T23:53:47.176Z,1.03
2022-09-01T23:56:16.710Z,1.03
2022-09-01T23:58:46.106Z,0.90
